sensor_id;sensor_type;location;lat;lon;timestamp;temperature;humidity
7700;DHT22;3892;47.794;19.126;2022-08-21T00:00:23;25.80;54.10
7700;DHT22;3892;47.794;19.126;2022-08-21T00:02:52;25.80;54.20
7700;DHT22;3892;47.794;19.126;2022-08-21T00:05:21;25.90;54.30
7700;DHT22;3892;47.794;19.126;2022-08-21T00:07:49;25.80;54.00
7700;DHT22;3892;47.794;19.126;2022-08-21T00:10:16;25.90;54.00
7700;DHT22;3892;47.794;19.126;2022-08-21T00:12:44;26.00;54.00
7700;DHT22;3892;47.794;19.126;2022-08-21T00:15:16;26.00;53.90
7700;DHT22;3892;47.794;19.126;2022-08-21T00:17:43;25.90;53.80
7700;DHT22;3892;47.794;19.126;2022-08-21T00:20:12;25.80;53.80
7700;DHT22;3892;47.794;19.126;2022-08-21T00:22:42;25.90;53.90
7700;DHT22;3892;47.794;19.126;2022-08-21T00:25:10;25.90;53.90
7700;DHT22;3892;47.794;19.126;2022-08-21T00:27:38;25.90;53.90
7700;DHT22;3892;47.794;19.126;2022-08-21T00:30:06;26.00;53.90
7700;DHT22;3892;47.794;19.126;2022-08-21T00:32:34;25.90;53.80
7700;DHT22;3892;47.794;19.126;2022-08-21T00:35:04;25.80;53.80
7700;DHT22;3892;47.794;19.126;2022-08-21T00:37:31;25.80;54.00
7700;DHT22;3892;47.794;19.126;2022-08-21T00:39:59;25.80;54.10
7700;DHT22;3892;47.794;19.126;2022-08-21T00:42:28;25.80;54.20
7700;DHT22;3892;47.794;19.126;2022-08-21T00:44:56;25.70;54.00
7700;DHT22;3892;47.794;19.126;2022-08-21T00:47:23;25.80;54.20
7700;DHT22;3892;47.794;19.126;2022-08-21T00:49:51;25.70;54.10
7700;DHT22;3892;47.794;19.126;2022-08-21T00:52:22;25.70;54.10
7700;DHT22;3892;47.794;19.126;2022-08-21T00:54:51;25.70;54.10
7700;DHT22;3892;47.794;19.126;2022-08-21T00:57:24;25.70;54.20
7700;DHT22;3892;47.794;19.126;2022-08-21T00:59:54;25.60;54.20
7700;DHT22;3892;47.794;19.126;2022-08-21T01:02:22;25.50;54.40
7700;DHT22;3892;47.794;19.126;2022-08-21T01:04:49;25.50;54.50
7700;DHT22;3892;47.794;19.126;2022-08-21T01:07:17;25.40;54.50
7700;DHT22;3892;47.794;19.126;2022-08-21T01:09:46;25.30;54.70
7700;DHT22;3892;47.794;19.126;2022-08-21T01:12:14;25.30;54.90
7700;DHT22;3892;47.794;19.126;2022-08-21T01:14:43;25.30;54.90
7700;DHT22;3892;47.794;19.126;2022-08-21T01:17:12;25.40;54.80
7700;DHT22;3892;47.794;19.126;2022-08-21T01:19:41;25.40;54.80
7700;DHT22;3892;47.794;19.126;2022-08-21T01:22:09;25.40;54.90
7700;DHT22;3892;47.794;19.126;2022-08-21T01:24:37;25.30;54.90
7700;DHT22;3892;47.794;19.126;2022-08-21T01:27:04;25.30;54.90
7700;DHT22;3892;47.794;19.126;2022-08-21T01:29:36;25.40;54.90
7700;DHT22;3892;47.794;19.126;2022-08-21T01:32:06;25.40;54.90
7700;DHT22;3892;47.794;19.126;2022-08-21T01:34:38;25.40;54.90
7700;DHT22;3892;47.794;19.126;2022-08-21T01:37:05;25.30;54.80
7700;DHT22;3892;47.794;19.126;2022-08-21T01:39:34;25.40;54.80
7700;DHT22;3892;47.794;19.126;2022-08-21T01:42:03;25.50;54.80
7700;DHT22;3892;47.794;19.126;2022-08-21T01:44:31;25.50;54.70
7700;DHT22;3892;47.794;19.126;2022-08-21T01:46:59;25.50;54.70
7700;DHT22;3892;47.794;19.126;2022-08-21T01:49:26;25.50;54.50
7700;DHT22;3892;47.794;19.126;2022-08-21T01:51:54;25.50;54.60
7700;DHT22;3892;47.794;19.126;2022-08-21T01:54:21;25.50;54.60
7700;DHT22;3892;47.794;19.126;2022-08-21T01:56:51;25.60;54.50
7700;DHT22;3892;47.794;19.126;2022-08-21T01:59:19;25.50;54.50
7700;DHT22;3892;47.794;19.126;2022-08-21T02:01:46;25.50;54.50
7700;DHT22;3892;47.794;19.126;2022-08-21T02:04:15;25.50;54.50
7700;DHT22;3892;47.794;19.126;2022-08-21T02:06:43;25.50;54.60
7700;DHT22;3892;47.794;19.126;2022-08-21T02:09:11;25.40;54.60
7700;DHT22;3892;47.794;19.126;2022-08-21T02:11:40;25.50;54.70
7700;DHT22;3892;47.794;19.126;2022-08-21T02:14:10;25.40;54.70
7700;DHT22;3892;47.794;19.126;2022-08-21T02:16:38;25.40;54.90
7700;DHT22;3892;47.794;19.126;2022-08-21T02:19:06;25.30;54.80
7700;DHT22;3892;47.794;19.126;2022-08-21T02:21:33;25.10;54.90
7700;DHT22;3892;47.794;19.126;2022-08-21T02:24:00;25.30;55.10
7700;DHT22;3892;47.794;19.126;2022-08-21T02:26:27;25.30;55.10
7700;DHT22;3892;47.794;19.126;2022-08-21T02:28:54;25.30;55.00
7700;DHT22;3892;47.794;19.126;2022-08-21T02:31:22;25.30;55.10
7700;DHT22;3892;47.794;19.126;2022-08-21T02:33:50;25.40;55.00
7700;DHT22;3892;47.794;19.126;2022-08-21T02:36:17;25.30;55.10
7700;DHT22;3892;47.794;19.126;2022-08-21T02:38:44;25.40;55.00
7700;DHT22;3892;47.794;19.126;2022-08-21T02:41:14;25.40;55.00
7700;DHT22;3892;47.794;19.126;2022-08-21T02:43:41;25.40;55.00
7700;DHT22;3892;47.794;19.126;2022-08-21T02:46:10;25.40;55.00
7700;DHT22;3892;47.794;19.126;2022-08-21T02:48:40;25.40;55.00
7700;DHT22;3892;47.794;19.126;2022-08-21T02:51:09;25.50;55.00
7700;DHT22;3892;47.794;19.126;2022-08-21T02:53:36;25.40;54.90
7700;DHT22;3892;47.794;19.126;2022-08-21T02:56:06;25.40;55.00
7700;DHT22;3892;47.794;19.126;2022-08-21T02:58:35;25.40;55.00
7700;DHT22;3892;47.794;19.126;2022-08-21T03:01:04;25.40;55.00
7700;DHT22;3892;47.794;19.126;2022-08-21T03:03:33;25.40;55.00
7700;DHT22;3892;47.794;19.126;2022-08-21T03:06:03;25.40;55.50
7700;DHT22;3892;47.794;19.126;2022-08-21T03:08:30;25.40;55.00
7700;DHT22;3892;47.794;19.126;2022-08-21T03:10:57;25.40;55.00
7700;DHT22;3892;47.794;19.126;2022-08-21T03:13:26;25.50;54.90
7700;DHT22;3892;47.794;19.126;2022-08-21T03:15:54;25.40;55.50
7700;DHT22;3892;47.794;19.126;2022-08-21T03:18:21;25.40;54.90
7700;DHT22;3892;47.794;19.126;2022-08-21T03:20:48;25.50;55.00
7700;DHT22;3892;47.794;19.126;2022-08-21T03:23:17;25.40;54.90
7700;DHT22;3892;47.794;19.126;2022-08-21T03:25:45;25.40;54.90
7700;DHT22;3892;47.794;19.126;2022-08-21T03:28:14;25.40;55.00
7700;DHT22;3892;47.794;19.126;2022-08-21T03:30:43;25.40;55.00
7700;DHT22;3892;47.794;19.126;2022-08-21T03:33:10;25.40;54.90
7700;DHT22;3892;47.794;19.126;2022-08-21T03:35:37;25.40;54.90
7700;DHT22;3892;47.794;19.126;2022-08-21T03:38:06;25.40;54.90
7700;DHT22;3892;47.794;19.126;2022-08-21T03:40:34;25.40;54.80
7700;DHT22;3892;47.794;19.126;2022-08-21T03:43:01;25.40;54.80
7700;DHT22;3892;47.794;19.126;2022-08-21T03:45:28;25.40;54.80
7700;DHT22;3892;47.794;19.126;2022-08-21T03:47:57;25.40;54.80
7700;DHT22;3892;47.794;19.126;2022-08-21T03:50:25;25.40;54.90
7700;DHT22;3892;47.794;19.126;2022-08-21T03:52:53;25.40;55.00
7700;DHT22;3892;47.794;19.126;2022-08-21T03:55:20;25.30;55.10
7700;DHT22;3892;47.794;19.126;2022-08-21T03:57:48;25.30;55.20
7700;DHT22;3892;47.794;19.126;2022-08-21T04:00:16;25.20;55.20
7700;DHT22;3892;47.794;19.126;2022-08-21T04:02:45;25.20;55.30
7700;DHT22;3892;47.794;19.126;2022-08-21T04:05:14;25.10;55.50
7700;DHT22;3892;47.794;19.126;2022-08-21T04:07:53;25.20;55.50
7700;DHT22;3892;47.794;19.126;2022-08-21T04:10:20;25.20;55.50
7700;DHT22;3892;47.794;19.126;2022-08-21T04:12:48;25.20;55.40
7700;DHT22;3892;47.794;19.126;2022-08-21T04:15:15;25.20;55.40
7700;DHT22;3892;47.794;19.126;2022-08-21T04:17:42;25.30;55.40
7700;DHT22;3892;47.794;19.126;2022-08-21T04:20:09;25.20;56.00
7700;DHT22;3892;47.794;19.126;2022-08-21T04:22:36;25.20;55.40
7700;DHT22;3892;47.794;19.126;2022-08-21T04:25:07;25.30;55.40
7700;DHT22;3892;47.794;19.126;2022-08-21T04:27:34;25.20;55.50
7700;DHT22;3892;47.794;19.126;2022-08-21T04:30:03;25.20;55.50
7700;DHT22;3892;47.794;19.126;2022-08-21T04:32:30;25.30;55.50
7700;DHT22;3892;47.794;19.126;2022-08-21T04:34:59;25.30;55.50
7700;DHT22;3892;47.794;19.126;2022-08-21T04:37:26;25.30;55.40
7700;DHT22;3892;47.794;19.126;2022-08-21T04:39:54;25.30;55.40
7700;DHT22;3892;47.794;19.126;2022-08-21T04:42:23;25.40;55.40
7700;DHT22;3892;47.794;19.126;2022-08-21T04:44:50;25.40;55.30
7700;DHT22;3892;47.794;19.126;2022-08-21T04:47:19;25.40;55.20
7700;DHT22;3892;47.794;19.126;2022-08-21T04:49:46;25.50;55.20
7700;DHT22;3892;47.794;19.126;2022-08-21T04:52:18;25.50;55.10
7700;DHT22;3892;47.794;19.126;2022-08-21T04:54:48;25.60;55.00
7700;DHT22;3892;47.794;19.126;2022-08-21T04:57:17;25.70;54.90
7700;DHT22;3892;47.794;19.126;2022-08-21T04:59:47;25.70;54.80
7700;DHT22;3892;47.794;19.126;2022-08-21T05:02:15;25.70;54.70
7700;DHT22;3892;47.794;19.126;2022-08-21T05:04:45;25.70;54.70
7700;DHT22;3892;47.794;19.126;2022-08-21T05:07:18;25.60;54.70
7700;DHT22;3892;47.794;19.126;2022-08-21T05:09:46;25.60;54.70
7700;DHT22;3892;47.794;19.126;2022-08-21T05:12:13;25.60;54.70
7700;DHT22;3892;47.794;19.126;2022-08-21T05:14:40;25.60;54.70
7700;DHT22;3892;47.794;19.126;2022-08-21T05:17:08;25.70;54.70
7700;DHT22;3892;47.794;19.126;2022-08-21T05:19:35;25.70;54.60
7700;DHT22;3892;47.794;19.126;2022-08-21T05:22:05;25.70;54.50
7700;DHT22;3892;47.794;19.126;2022-08-21T05:24:35;25.70;54.40
7700;DHT22;3892;47.794;19.126;2022-08-21T05:27:02;25.70;54.40
7700;DHT22;3892;47.794;19.126;2022-08-21T05:29:29;25.70;54.40
7700;DHT22;3892;47.794;19.126;2022-08-21T05:31:56;25.80;54.30
7700;DHT22;3892;47.794;19.126;2022-08-21T05:34:24;25.80;54.20
7700;DHT22;3892;47.794;19.126;2022-08-21T05:36:50;25.90;54.10
7700;DHT22;3892;47.794;19.126;2022-08-21T05:39:19;25.90;54.60
7700;DHT22;3892;47.794;19.126;2022-08-21T05:41:46;25.90;54.00
7700;DHT22;3892;47.794;19.126;2022-08-21T05:44:13;25.80;53.90
7700;DHT22;3892;47.794;19.126;2022-08-21T05:46:40;25.80;54.00
7700;DHT22;3892;47.794;19.126;2022-08-21T05:49:07;25.80;54.00
7700;DHT22;3892;47.794;19.126;2022-08-21T05:51:34;25.80;54.10
7700;DHT22;3892;47.794;19.126;2022-08-21T05:54:04;25.80;54.00
7700;DHT22;3892;47.794;19.126;2022-08-21T05:56:42;25.70;54.00
7700;DHT22;3892;47.794;19.126;2022-08-21T05:59:10;25.70;54.20
7700;DHT22;3892;47.794;19.126;2022-08-21T06:01:39;25.70;54.30
7700;DHT22;3892;47.794;19.126;2022-08-21T06:04:06;25.70;54.40
7700;DHT22;3892;47.794;19.126;2022-08-21T06:06:34;25.70;54.30
7700;DHT22;3892;47.794;19.126;2022-08-21T06:09:02;25.80;54.30
7700;DHT22;3892;47.794;19.126;2022-08-21T06:11:29;25.80;54.20
7700;DHT22;3892;47.794;19.126;2022-08-21T06:13:57;25.70;54.10
7700;DHT22;3892;47.794;19.126;2022-08-21T06:16:25;25.80;54.20
7700;DHT22;3892;47.794;19.126;2022-08-21T06:18:52;25.80;54.10
7700;DHT22;3892;47.794;19.126;2022-08-21T06:21:19;25.80;54.10
7700;DHT22;3892;47.794;19.126;2022-08-21T06:23:50;25.70;54.10
7700;DHT22;3892;47.794;19.126;2022-08-21T06:26:21;25.70;54.00
7700;DHT22;3892;47.794;19.126;2022-08-21T06:28:49;25.70;54.00
7700;DHT22;3892;47.794;19.126;2022-08-21T06:31:19;25.70;54.10
7700;DHT22;3892;47.794;19.126;2022-08-21T06:33:47;25.70;54.00
7700;DHT22;3892;47.794;19.126;2022-08-21T06:36:14;25.70;54.00
7700;DHT22;3892;47.794;19.126;2022-08-21T06:38:41;25.70;54.10
7700;DHT22;3892;47.794;19.126;2022-08-21T06:41:08;25.70;54.00
7700;DHT22;3892;47.794;19.126;2022-08-21T06:43:35;25.80;53.90
7700;DHT22;3892;47.794;19.126;2022-08-21T06:46:03;25.70;53.90
7700;DHT22;3892;47.794;19.126;2022-08-21T06:48:31;25.70;54.00
7700;DHT22;3892;47.794;19.126;2022-08-21T06:51:00;25.80;53.80
7700;DHT22;3892;47.794;19.126;2022-08-21T06:53:27;25.80;53.80
7700;DHT22;3892;47.794;19.126;2022-08-21T06:55:54;25.90;53.60
7700;DHT22;3892;47.794;19.126;2022-08-21T06:58:21;25.90;53.60
7700;DHT22;3892;47.794;19.126;2022-08-21T07:00:49;25.90;53.60
7700;DHT22;3892;47.794;19.126;2022-08-21T07:03:19;25.90;53.50
7700;DHT22;3892;47.794;19.126;2022-08-21T07:05:47;25.90;53.40
7700;DHT22;3892;47.794;19.126;2022-08-21T07:08:15;25.90;53.50
7700;DHT22;3892;47.794;19.126;2022-08-21T07:10:42;26.00;53.60
7700;DHT22;3892;47.794;19.126;2022-08-21T07:13:09;26.00;53.40
7700;DHT22;3892;47.794;19.126;2022-08-21T07:15:36;26.10;53.50
7700;DHT22;3892;47.794;19.126;2022-08-21T07:18:03;26.10;53.50
7700;DHT22;3892;47.794;19.126;2022-08-21T07:20:31;26.20;53.40
7700;DHT22;3892;47.794;19.126;2022-08-21T07:23:03;26.30;53.50
7700;DHT22;3892;47.794;19.126;2022-08-21T07:25:31;26.30;53.20
7700;DHT22;3892;47.794;19.126;2022-08-21T07:27:58;26.30;53.30
7700;DHT22;3892;47.794;19.126;2022-08-21T07:30:26;26.30;53.10
7700;DHT22;3892;47.794;19.126;2022-08-21T07:32:53;26.40;53.00
7700;DHT22;3892;47.794;19.126;2022-08-21T07:35:21;26.30;52.80
7700;DHT22;3892;47.794;19.126;2022-08-21T07:37:48;26.30;52.70
7700;DHT22;3892;47.794;19.126;2022-08-21T07:40:17;26.30;52.70
7700;DHT22;3892;47.794;19.126;2022-08-21T07:42:48;26.30;52.60
7700;DHT22;3892;47.794;19.126;2022-08-21T07:45:19;26.30;52.70
7700;DHT22;3892;47.794;19.126;2022-08-21T07:47:46;26.30;52.90
7700;DHT22;3892;47.794;19.126;2022-08-21T07:50:14;26.30;52.80
7700;DHT22;3892;47.794;19.126;2022-08-21T07:52:41;26.30;52.90
7700;DHT22;3892;47.794;19.126;2022-08-21T07:55:10;26.20;52.80
7700;DHT22;3892;47.794;19.126;2022-08-21T07:57:39;26.20;53.10
7700;DHT22;3892;47.794;19.126;2022-08-21T08:00:09;26.20;53.20
7700;DHT22;3892;47.794;19.126;2022-08-21T08:02:39;26.30;53.10
7700;DHT22;3892;47.794;19.126;2022-08-21T08:05:09;26.30;53.10
7700;DHT22;3892;47.794;19.126;2022-08-21T08:07:36;26.30;52.90
7700;DHT22;3892;47.794;19.126;2022-08-21T08:10:05;26.30;52.70
7700;DHT22;3892;47.794;19.126;2022-08-21T08:12:32;26.40;52.80
7700;DHT22;3892;47.794;19.126;2022-08-21T08:15:02;26.30;52.80
7700;DHT22;3892;47.794;19.126;2022-08-21T08:17:30;26.40;52.90
7700;DHT22;3892;47.794;19.126;2022-08-21T08:19:58;26.50;53.00
7700;DHT22;3892;47.794;19.126;2022-08-21T08:22:26;26.50;52.80
7700;DHT22;3892;47.794;19.126;2022-08-21T08:24:54;26.50;52.70
7700;DHT22;3892;47.794;19.126;2022-08-21T08:27:21;26.60;52.70
7700;DHT22;3892;47.794;19.126;2022-08-21T08:29:49;26.60;52.60
7700;DHT22;3892;47.794;19.126;2022-08-21T08:32:18;26.60;52.50
7700;DHT22;3892;47.794;19.126;2022-08-21T08:34:45;26.60;52.50
7700;DHT22;3892;47.794;19.126;2022-08-21T08:37:14;26.60;52.50
7700;DHT22;3892;47.794;19.126;2022-08-21T08:39:41;26.60;52.60
7700;DHT22;3892;47.794;19.126;2022-08-21T08:42:11;26.70;52.60
7700;DHT22;3892;47.794;19.126;2022-08-21T08:44:39;26.70;52.40
7700;DHT22;3892;47.794;19.126;2022-08-21T08:47:08;26.60;52.30
7700;DHT22;3892;47.794;19.126;2022-08-21T08:49:39;26.50;52.40
7700;DHT22;3892;47.794;19.126;2022-08-21T08:52:15;26.40;52.50
7700;DHT22;3892;47.794;19.126;2022-08-21T08:54:49;26.40;52.60
7700;DHT22;3892;47.794;19.126;2022-08-21T08:57:20;26.40;52.70
7700;DHT22;3892;47.794;19.126;2022-08-21T08:59:50;26.50;52.60
7700;DHT22;3892;47.794;19.126;2022-08-21T09:02:18;26.40;52.50
7700;DHT22;3892;47.794;19.126;2022-08-21T09:04:48;26.40;52.60
7700;DHT22;3892;47.794;19.126;2022-08-21T09:07:23;26.40;52.90
7700;DHT22;3892;47.794;19.126;2022-08-21T09:10:02;26.30;52.80
7700;DHT22;3892;47.794;19.126;2022-08-21T09:12:37;26.30;53.00
7700;DHT22;3892;47.794;19.126;2022-08-21T09:15:12;26.30;52.80
7700;DHT22;3892;47.794;19.126;2022-08-21T09:18:02;26.40;52.90
7700;DHT22;3892;47.794;19.126;2022-08-21T09:20:38;26.30;52.80
7700;DHT22;3892;47.794;19.126;2022-08-21T09:23:25;26.40;52.90
7700;DHT22;3892;47.794;19.126;2022-08-21T09:26:04;26.40;52.90
7700;DHT22;3892;47.794;19.126;2022-08-21T09:28:33;26.50;52.80
7700;DHT22;3892;47.794;19.126;2022-08-21T09:31:02;26.50;52.70
7700;DHT22;3892;47.794;19.126;2022-08-21T09:33:29;26.50;52.70
7700;DHT22;3892;47.794;19.126;2022-08-21T09:35:58;26.60;52.90
7700;DHT22;3892;47.794;19.126;2022-08-21T09:38:28;26.60;52.80
7700;DHT22;3892;47.794;19.126;2022-08-21T09:41:00;26.60;52.90
7700;DHT22;3892;47.794;19.126;2022-08-21T09:43:28;26.70;52.80
7700;DHT22;3892;47.794;19.126;2022-08-21T09:46:05;26.70;52.80
7700;DHT22;3892;47.794;19.126;2022-08-21T09:48:40;26.80;52.90
7700;DHT22;3892;47.794;19.126;2022-08-21T09:51:11;26.90;52.70
7700;DHT22;3892;47.794;19.126;2022-08-21T09:53:42;27.00;52.60
7700;DHT22;3892;47.794;19.126;2022-08-21T09:56:21;27.00;52.20
7700;DHT22;3892;47.794;19.126;2022-08-21T09:59:24;27.10;52.40
7700;DHT22;3892;47.794;19.126;2022-08-21T10:01:52;27.20;52.40
7700;DHT22;3892;47.794;19.126;2022-08-21T10:04:23;27.30;52.20
7700;DHT22;3892;47.794;19.126;2022-08-21T10:06:51;27.30;52.10
7700;DHT22;3892;47.794;19.126;2022-08-21T10:09:20;27.40;52.00
7700;DHT22;3892;47.794;19.126;2022-08-21T10:11:53;27.40;51.90
7700;DHT22;3892;47.794;19.126;2022-08-21T10:14:34;27.50;52.00
7700;DHT22;3892;47.794;19.126;2022-08-21T10:17:07;27.50;52.00
7700;DHT22;3892;47.794;19.126;2022-08-21T10:19:43;27.60;51.80
7700;DHT22;3892;47.794;19.126;2022-08-21T10:22:22;27.60;51.50
7700;DHT22;3892;47.794;19.126;2022-08-21T10:25:02;27.60;51.60
7700;DHT22;3892;47.794;19.126;2022-08-21T10:27:37;27.60;51.50
7700;DHT22;3892;47.794;19.126;2022-08-21T10:30:09;27.70;51.50
7700;DHT22;3892;47.794;19.126;2022-08-21T10:32:57;27.70;51.40
7700;DHT22;3892;47.794;19.126;2022-08-21T10:35:29;27.70;51.70
7700;DHT22;3892;47.794;19.126;2022-08-21T10:41:26;27.70;51.50
7700;DHT22;3892;47.794;19.126;2022-08-21T10:44:03;27.60;51.60
7700;DHT22;3892;47.794;19.126;2022-08-21T10:46:40;27.70;51.50
7700;DHT22;3892;47.794;19.126;2022-08-21T10:49:21;27.70;51.80
7700;DHT22;3892;47.794;19.126;2022-08-21T10:51:55;27.70;51.80
7700;DHT22;3892;47.794;19.126;2022-08-21T10:54:32;27.80;51.70
7700;DHT22;3892;47.794;19.126;2022-08-21T10:57:05;27.80;51.80
7700;DHT22;3892;47.794;19.126;2022-08-21T10:59:39;27.90;51.50
7700;DHT22;3892;47.794;19.126;2022-08-21T11:02:15;27.90;51.50
7700;DHT22;3892;47.794;19.126;2022-08-21T11:04:50;28.00;51.40
7700;DHT22;3892;47.794;19.126;2022-08-21T11:07:22;28.00;51.10
7700;DHT22;3892;47.794;19.126;2022-08-21T11:09:56;28.00;51.10
7700;DHT22;3892;47.794;19.126;2022-08-21T11:12:29;28.00;51.80
7700;DHT22;3892;47.794;19.126;2022-08-21T11:15:05;28.10;51.00
7700;DHT22;3892;47.794;19.126;2022-08-21T11:17:39;28.10;51.00
7700;DHT22;3892;47.794;19.126;2022-08-21T11:20:13;28.10;51.10
7700;DHT22;3892;47.794;19.126;2022-08-21T11:22:48;28.10;51.20
7700;DHT22;3892;47.794;19.126;2022-08-21T11:25:22;28.10;50.80
7700;DHT22;3892;47.794;19.126;2022-08-21T11:27:54;28.20;50.80
7700;DHT22;3892;47.794;19.126;2022-08-21T11:30:24;28.10;50.50
7700;DHT22;3892;47.794;19.126;2022-08-21T11:33:08;28.10;50.80
7700;DHT22;3892;47.794;19.126;2022-08-21T11:35:40;28.10;51.00
7700;DHT22;3892;47.794;19.126;2022-08-21T11:38:22;28.10;50.80
7700;DHT22;3892;47.794;19.126;2022-08-21T11:41:09;28.30;51.10
7700;DHT22;3892;47.794;19.126;2022-08-21T11:43:41;28.40;51.60
7700;DHT22;3892;47.794;19.126;2022-08-21T11:46:19;28.50;51.20
7700;DHT22;3892;47.794;19.126;2022-08-21T11:48:57;28.50;50.90
7700;DHT22;3892;47.794;19.126;2022-08-21T11:51:31;28.60;50.60
7700;DHT22;3892;47.794;19.126;2022-08-21T11:54:04;28.70;50.80
7700;DHT22;3892;47.794;19.126;2022-08-21T11:56:37;28.70;50.10
7700;DHT22;3892;47.794;19.126;2022-08-21T11:59:11;28.70;50.30
7700;DHT22;3892;47.794;19.126;2022-08-21T12:01:42;28.70;50.40
7700;DHT22;3892;47.794;19.126;2022-08-21T12:04:17;28.70;50.10
7700;DHT22;3892;47.794;19.126;2022-08-21T12:06:45;28.60;50.10
7700;DHT22;3892;47.794;19.126;2022-08-21T12:09:31;28.60;50.10
7700;DHT22;3892;47.794;19.126;2022-08-21T12:12:04;28.70;50.40
7700;DHT22;3892;47.794;19.126;2022-08-21T12:14:40;28.70;50.60
7700;DHT22;3892;47.794;19.126;2022-08-21T12:17:16;28.70;50.50
7700;DHT22;3892;47.794;19.126;2022-08-21T12:19:44;28.60;50.20
7700;DHT22;3892;47.794;19.126;2022-08-21T12:22:13;28.70;50.10
7700;DHT22;3892;47.794;19.126;2022-08-21T12:24:42;28.60;50.00
7700;DHT22;3892;47.794;19.126;2022-08-21T12:27:23;28.60;50.30
7700;DHT22;3892;47.794;19.126;2022-08-21T12:29:55;28.60;50.20
7700;DHT22;3892;47.794;19.126;2022-08-21T12:32:26;28.50;50.30
7700;DHT22;3892;47.794;19.126;2022-08-21T12:34:57;28.60;50.30
7700;DHT22;3892;47.794;19.126;2022-08-21T12:37:34;28.50;50.90
7700;DHT22;3892;47.794;19.126;2022-08-21T12:40:10;28.60;50.30
7700;DHT22;3892;47.794;19.126;2022-08-21T12:42:42;28.60;50.60
7700;DHT22;3892;47.794;19.126;2022-08-21T12:45:18;28.60;50.80
7700;DHT22;3892;47.794;19.126;2022-08-21T12:47:48;28.60;50.60
7700;DHT22;3892;47.794;19.126;2022-08-21T12:50:20;28.60;50.50
7700;DHT22;3892;47.794;19.126;2022-08-21T12:52:55;28.60;50.50
7700;DHT22;3892;47.794;19.126;2022-08-21T12:55:29;28.60;50.70
7700;DHT22;3892;47.794;19.126;2022-08-21T12:57:58;28.60;50.80
7700;DHT22;3892;47.794;19.126;2022-08-21T13:00:27;28.70;50.80
7700;DHT22;3892;47.794;19.126;2022-08-21T13:02:55;28.70;50.60
7700;DHT22;3892;47.794;19.126;2022-08-21T13:05:28;28.70;50.60
7700;DHT22;3892;47.794;19.126;2022-08-21T13:07:58;28.70;50.20
7700;DHT22;3892;47.794;19.126;2022-08-21T13:10:28;28.70;50.20
7700;DHT22;3892;47.794;19.126;2022-08-21T13:12:59;28.80;50.30
7700;DHT22;3892;47.794;19.126;2022-08-21T13:15:30;28.80;50.40
7700;DHT22;3892;47.794;19.126;2022-08-21T13:17:58;28.80;50.10
7700;DHT22;3892;47.794;19.126;2022-08-21T13:20:29;28.80;50.00
7700;DHT22;3892;47.794;19.126;2022-08-21T13:22:57;28.80;50.20
7700;DHT22;3892;47.794;19.126;2022-08-21T13:25:28;28.80;50.30
7700;DHT22;3892;47.794;19.126;2022-08-21T13:28:04;28.80;50.20
7700;DHT22;3892;47.794;19.126;2022-08-21T13:30:31;28.80;50.30
7700;DHT22;3892;47.794;19.126;2022-08-21T13:33:01;28.80;50.10
7700;DHT22;3892;47.794;19.126;2022-08-21T13:35:35;28.80;50.20
7700;DHT22;3892;47.794;19.126;2022-08-21T13:38:04;28.80;50.00
7700;DHT22;3892;47.794;19.126;2022-08-21T13:40:40;28.80;49.60
7700;DHT22;3892;47.794;19.126;2022-08-21T13:43:12;28.80;50.00
7700;DHT22;3892;47.794;19.126;2022-08-21T13:45:43;28.80;50.50
7700;DHT22;3892;47.794;19.126;2022-08-21T13:48:10;28.70;50.00
7700;DHT22;3892;47.794;19.126;2022-08-21T13:50:38;28.70;49.90
7700;DHT22;3892;47.794;19.126;2022-08-21T13:53:18;28.70;50.00
7700;DHT22;3892;47.794;19.126;2022-08-21T13:55:46;28.70;50.10
7700;DHT22;3892;47.794;19.126;2022-08-21T13:58:24;28.70;50.30
7700;DHT22;3892;47.794;19.126;2022-08-21T14:00:53;28.70;50.30
7700;DHT22;3892;47.794;19.126;2022-08-21T14:03:32;28.70;50.40
7700;DHT22;3892;47.794;19.126;2022-08-21T14:06:00;28.50;50.10
7700;DHT22;3892;47.794;19.126;2022-08-21T14:08:31;28.50;50.40
7700;DHT22;3892;47.794;19.126;2022-08-21T14:10:59;28.50;50.40
7700;DHT22;3892;47.794;19.126;2022-08-21T14:13:34;28.30;50.50
7700;DHT22;3892;47.794;19.126;2022-08-21T14:16:09;28.30;50.80
7700;DHT22;3892;47.794;19.126;2022-08-21T14:18:47;28.30;50.70
7700;DHT22;3892;47.794;19.126;2022-08-21T14:21:26;28.30;50.70
7700;DHT22;3892;47.794;19.126;2022-08-21T14:24:04;28.20;50.80
7700;DHT22;3892;47.794;19.126;2022-08-21T14:26:34;28.20;50.70
7700;DHT22;3892;47.794;19.126;2022-08-21T14:29:07;28.10;50.80
7700;DHT22;3892;47.794;19.126;2022-08-21T14:31:34;28.10;50.70
7700;DHT22;3892;47.794;19.126;2022-08-21T14:34:02;28.10;50.80
7700;DHT22;3892;47.794;19.126;2022-08-21T14:36:29;28.10;50.80
7700;DHT22;3892;47.794;19.126;2022-08-21T14:38:55;28.10;50.80
7700;DHT22;3892;47.794;19.126;2022-08-21T14:41:24;28.00;51.00
7700;DHT22;3892;47.794;19.126;2022-08-21T14:43:53;28.00;51.00
7700;DHT22;3892;47.794;19.126;2022-08-21T14:46:24;28.00;51.10
7700;DHT22;3892;47.794;19.126;2022-08-21T14:48:52;27.90;51.20
7700;DHT22;3892;47.794;19.126;2022-08-21T14:51:19;28.00;51.10
7700;DHT22;3892;47.794;19.126;2022-08-21T14:53:47;28.00;51.10
7700;DHT22;3892;47.794;19.126;2022-08-21T14:56:15;28.00;51.00
7700;DHT22;3892;47.794;19.126;2022-08-21T14:58:44;28.00;51.00
7700;DHT22;3892;47.794;19.126;2022-08-21T15:01:13;28.00;51.10
7700;DHT22;3892;47.794;19.126;2022-08-21T15:03:42;28.00;51.20
7700;DHT22;3892;47.794;19.126;2022-08-21T15:06:10;28.10;51.10
7700;DHT22;3892;47.794;19.126;2022-08-21T15:08:37;28.00;51.00
7700;DHT22;3892;47.794;19.126;2022-08-21T15:11:05;28.00;51.00
7700;DHT22;3892;47.794;19.126;2022-08-21T15:13:33;28.00;51.20
7700;DHT22;3892;47.794;19.126;2022-08-21T15:16:00;28.00;51.20
7700;DHT22;3892;47.794;19.126;2022-08-21T15:18:28;28.00;51.40
7700;DHT22;3892;47.794;19.126;2022-08-21T15:20:57;28.00;51.30
7700;DHT22;3892;47.794;19.126;2022-08-21T15:23:24;28.00;51.00
7700;DHT22;3892;47.794;19.126;2022-08-21T15:25:52;27.90;51.00
7700;DHT22;3892;47.794;19.126;2022-08-21T15:28:19;27.90;51.00
7700;DHT22;3892;47.794;19.126;2022-08-21T15:30:47;28.00;51.80
7700;DHT22;3892;47.794;19.126;2022-08-21T15:33:14;28.00;51.10
7700;DHT22;3892;47.794;19.126;2022-08-21T15:35:41;28.00;52.30
7700;DHT22;3892;47.794;19.126;2022-08-21T15:38:09;27.90;51.80
7700;DHT22;3892;47.794;19.126;2022-08-21T15:40:37;27.90;52.60
7700;DHT22;3892;47.794;19.126;2022-08-21T15:43:05;27.90;52.90
7700;DHT22;3892;47.794;19.126;2022-08-21T15:45:33;27.90;53.80
7700;DHT22;3892;47.794;19.126;2022-08-21T15:48:00;27.90;54.10
7700;DHT22;3892;47.794;19.126;2022-08-21T15:50:29;27.90;54.60
7700;DHT22;3892;47.794;19.126;2022-08-21T15:52:57;27.90;54.50
7700;DHT22;3892;47.794;19.126;2022-08-21T15:55:26;27.90;54.50
7700;DHT22;3892;47.794;19.126;2022-08-21T15:57:53;27.80;54.60
7700;DHT22;3892;47.794;19.126;2022-08-21T16:00:22;27.80;54.70
7700;DHT22;3892;47.794;19.126;2022-08-21T16:02:53;27.70;55.20
7700;DHT22;3892;47.794;19.126;2022-08-21T16:05:22;27.50;55.70